createdAt,value
2019-06-01T00:02:18.126Z,15.74
2019-06-01T00:04:49.380Z,15.77
2019-06-01T00:07:19.340Z,15.65
2019-06-01T00:09:49.658Z,15.38
2019-06-01T00:12:19.513Z,15.22
2019-06-01T00:14:49.989Z,15.45
2019-06-01T00:17:19.797Z,15.53
2019-06-01T00:19:50.312Z,15.57
2019-06-01T00:22:20.203Z,15.62
2019-06-01T00:24:50.276Z,15.54
2019-06-01T00:27:20.231Z,15.46
2019-06-01T00:29:50.022Z,15.32
2019-06-01T00:32:19.872Z,15.38
2019-06-01T00:34:49.960Z,15.52
2019-06-01T00:37:19.754Z,15.49
2019-06-01T00:39:49.936Z,15.46
2019-06-01T00:42:19.822Z,14.92
2019-06-01T00:44:50.428Z,14.84
2019-06-01T00:47:20.243Z,14.82
2019-06-01T00:49:51.085Z,14.89
2019-06-01T00:52:20.942Z,14.92
2019-06-01T00:54:51.722Z,15.08
2019-06-01T00:57:22.347Z,14.94
2019-06-01T00:59:53.651Z,15.00
2019-06-01T01:02:23.880Z,14.93
2019-06-01T01:05:14.221Z,14.66
2019-06-01T01:07:44.518Z,14.56
2019-06-01T01:10:15.431Z,14.55
2019-06-01T01:13:05.205Z,14.62
2019-06-01T01:15:35.553Z,14.74
2019-06-01T01:18:07.602Z,14.86
2019-06-01T01:20:38.068Z,14.97
2019-06-01T01:23:08.502Z,14.95
2019-06-01T01:25:38.376Z,14.89
2019-06-01T01:28:08.256Z,14.94
2019-06-01T01:30:38.099Z,14.94
2019-06-01T01:33:07.890Z,14.87
2019-06-01T01:35:37.705Z,14.88
2019-06-01T01:38:07.601Z,14.86
2019-06-01T01:40:37.409Z,14.82
2019-06-01T01:43:07.281Z,14.79
2019-06-01T01:45:37.188Z,14.80
2019-06-01T01:48:07.031Z,14.85
2019-06-01T01:50:36.822Z,14.94
2019-06-01T01:53:06.723Z,14.92
2019-06-01T01:55:36.516Z,14.97
2019-06-01T01:58:06.334Z,15.03
2019-06-01T02:00:42.452Z,15.03
2019-06-01T02:03:12.325Z,15.08
2019-06-01T02:05:42.435Z,15.03
2019-06-01T02:08:12.366Z,15.03
2019-06-01T02:10:42.278Z,14.92
2019-06-01T02:13:12.081Z,14.89
2019-06-01T02:15:42.966Z,14.84
2019-06-01T02:18:12.846Z,14.82
2019-06-01T02:20:42.652Z,14.81
2019-06-01T02:23:12.482Z,14.86
2019-06-01T02:25:42.353Z,14.96
2019-06-01T02:28:12.175Z,15.07
2019-06-01T02:30:41.991Z,15.08
2019-06-01T02:33:11.812Z,15.06
2019-06-01T02:35:41.620Z,15.05
2019-06-01T02:38:11.452Z,15.03
2019-06-01T02:40:41.492Z,15.05
2019-06-01T02:43:11.356Z,15.14
2019-06-01T02:45:41.166Z,15.08
2019-06-01T02:48:10.999Z,15.15
2019-06-01T02:50:41.089Z,15.13
2019-06-01T02:53:11.046Z,15.24
2019-06-01T02:55:40.864Z,15.26
2019-06-01T02:58:10.676Z,15.24
2019-06-01T03:00:46.707Z,15.21
2019-06-01T03:03:16.879Z,15.06
2019-06-01T03:05:48.159Z,15.00
2019-06-01T03:08:18.908Z,15.01
2019-06-01T03:10:50.275Z,14.99
2019-06-01T03:13:21.681Z,15.10
2019-06-01T03:15:54.248Z,15.16
2019-06-01T03:18:25.772Z,15.13
2019-06-01T03:20:57.675Z,15.10
2019-06-01T03:23:29.467Z,15.16
2019-06-01T03:26:02.169Z,15.23
2019-06-01T03:28:41.214Z,15.24
2019-06-01T03:31:11.045Z,15.20
2019-06-01T03:33:40.884Z,15.14
2019-06-01T03:36:10.724Z,15.08
2019-06-01T03:38:41.177Z,15.08
2019-06-01T03:41:12.320Z,15.13
2019-06-01T03:43:42.199Z,15.22
2019-06-01T03:46:13.032Z,15.26
2019-06-01T03:48:42.914Z,15.31
2019-06-01T03:51:12.763Z,15.34
2019-06-01T03:53:42.571Z,15.35
2019-06-01T03:56:12.386Z,15.45
2019-06-01T03:58:42.191Z,15.38
2019-06-01T04:01:11.985Z,15.28
2019-06-01T04:03:41.805Z,15.32
2019-06-01T04:06:11.613Z,15.39
2019-06-01T04:08:41.423Z,15.33
2019-06-01T04:11:11.751Z,15.43
2019-06-01T04:13:41.551Z,15.47
2019-06-01T04:16:12.067Z,15.40
2019-06-01T04:18:41.886Z,15.53
2019-06-01T04:21:12.172Z,15.46
2019-06-01T04:23:41.950Z,15.57
2019-06-01T04:26:12.287Z,15.48
2019-06-01T04:28:42.082Z,15.53
2019-06-01T04:31:12.832Z,15.58
2019-06-01T04:33:42.676Z,15.67
2019-06-01T04:36:13.086Z,15.55
2019-06-01T04:38:43.092Z,15.70
2019-06-01T04:41:14.115Z,15.75
2019-06-01T04:43:44.030Z,15.81
2019-06-01T04:46:14.444Z,15.90
2019-06-01T04:48:44.229Z,16.11
2019-06-01T04:51:14.972Z,16.18
2019-06-01T04:53:44.738Z,16.12
2019-06-01T04:56:15.250Z,16.21
2019-06-01T04:58:45.139Z,16.26
2019-06-01T05:01:15.182Z,16.26
2019-06-01T05:03:44.970Z,16.26
2019-06-01T05:06:15.489Z,16.33
2019-06-01T05:08:45.270Z,16.45
2019-06-01T05:11:15.730Z,16.56
2019-06-01T05:13:45.550Z,16.60
2019-06-01T05:16:16.616Z,16.69
2019-06-01T05:18:46.447Z,16.77
2019-06-01T05:21:16.860Z,16.87
2019-06-01T05:23:46.683Z,16.95
2019-06-01T05:26:17.137Z,16.96
2019-06-01T05:28:46.990Z,17.13
2019-06-01T05:31:24.270Z,17.24
2019-06-01T05:33:48.343Z,17.38
2019-06-01T05:36:18.382Z,17.47
2019-06-01T05:38:48.251Z,17.51
2019-06-01T05:41:19.929Z,17.60
2019-06-01T05:43:49.584Z,17.65
2019-06-01T05:46:19.406Z,17.64
2019-06-01T05:48:49.210Z,17.67
2019-06-01T05:51:20.191Z,17.67
2019-06-01T05:53:50.028Z,17.72
2019-06-01T05:56:19.825Z,17.80
2019-06-01T05:58:49.638Z,17.89
2019-06-01T06:01:19.751Z,17.91
2019-06-01T06:03:49.572Z,17.98
2019-06-01T06:06:19.952Z,18.02
2019-06-01T06:08:49.781Z,18.03
2019-06-01T06:11:19.590Z,18.08
2019-06-01T06:13:49.403Z,18.16
2019-06-01T06:16:20.746Z,17.88
2019-06-01T06:18:50.787Z,18.04
2019-06-01T06:21:20.588Z,18.14
2019-06-01T06:23:50.397Z,18.23
2019-06-01T06:26:20.484Z,18.26
2019-06-01T06:28:50.795Z,18.14
2019-06-01T06:31:21.175Z,18.09
2019-06-01T06:33:56.634Z,18.31
2019-06-01T06:36:23.822Z,18.37
2019-06-01T06:38:53.703Z,18.51
2019-06-01T06:41:24.455Z,18.59
2019-06-01T06:43:54.273Z,18.68
2019-06-01T06:46:24.860Z,18.69
2019-06-01T06:48:54.666Z,18.71
2019-06-01T06:51:25.534Z,18.88
2019-06-01T06:53:55.351Z,19.03
2019-06-01T06:56:26.185Z,19.16
2019-06-01T06:58:56.072Z,19.23
2019-06-01T07:01:26.990Z,19.44
2019-06-01T07:04:11.544Z,19.44
2019-06-01T07:06:28.454Z,19.50
2019-06-01T07:08:58.257Z,19.60
2019-06-01T07:11:28.096Z,19.80
2019-06-01T07:13:57.886Z,19.95
2019-06-01T07:16:27.711Z,19.98
2019-06-01T07:18:57.501Z,20.01
2019-06-01T07:21:27.890Z,19.86
2019-06-01T07:23:57.712Z,19.93
2019-06-01T07:26:28.151Z,19.99
2019-06-01T07:28:58.008Z,20.04
2019-06-01T07:31:28.380Z,20.14
2019-06-01T07:33:58.203Z,20.11
2019-06-01T07:36:28.695Z,20.01
2019-06-01T07:38:58.516Z,20.11
2019-06-01T07:41:28.838Z,20.28
2019-06-01T07:43:58.731Z,20.28
2019-06-01T07:46:28.989Z,20.24
2019-06-01T07:48:58.797Z,20.42
2019-06-01T07:51:29.621Z,20.40
2019-06-01T07:53:59.481Z,20.44
2019-06-01T07:56:29.295Z,20.29
2019-06-01T07:58:59.155Z,20.48
2019-06-01T08:01:30.586Z,20.42
2019-06-01T08:04:00.486Z,20.53
2019-06-01T08:06:32.586Z,20.49
2019-06-01T08:09:01.846Z,20.52
2019-06-01T08:11:33.503Z,20.59
2019-06-01T08:14:03.816Z,20.74
2019-06-01T08:16:33.633Z,20.76
2019-06-01T08:19:03.437Z,20.64
2019-06-01T08:21:33.272Z,20.86
2019-06-01T08:24:03.164Z,21.02
2019-06-01T08:26:33.041Z,21.05
2019-06-01T08:29:02.867Z,21.10
2019-06-01T08:31:33.662Z,21.15
2019-06-01T08:34:03.603Z,21.11
2019-06-01T08:36:33.946Z,21.09
2019-06-01T08:39:05.195Z,21.24
2019-06-01T08:41:35.006Z,21.27
2019-06-01T08:44:05.348Z,21.06
2019-06-01T08:46:35.159Z,21.11
2019-06-01T08:49:05.091Z,21.07
2019-06-01T08:51:34.930Z,21.00
2019-06-01T08:54:05.086Z,21.11
2019-06-01T08:56:35.039Z,21.21
2019-06-01T08:59:05.216Z,21.31
2019-06-01T09:01:35.111Z,21.38
2019-06-01T09:04:04.973Z,21.51
2019-06-01T09:06:35.365Z,21.62
2019-06-01T09:09:10.915Z,21.75
2019-06-01T09:11:39.109Z,21.86
2019-06-01T09:14:08.917Z,21.53
2019-06-01T09:16:38.754Z,21.64
2019-06-01T09:19:11.201Z,21.61
2019-06-01T09:21:40.101Z,21.72
2019-06-01T09:24:09.917Z,21.85
2019-06-01T09:26:39.729Z,21.89
2019-06-01T09:29:09.553Z,21.89
2019-06-01T09:31:39.362Z,21.85
2019-06-01T09:34:09.192Z,22.08
2019-06-01T09:36:39.017Z,21.72
2019-06-01T09:39:09.004Z,21.94
2019-06-01T09:41:38.794Z,21.95
2019-06-01T09:44:08.605Z,21.99
2019-06-01T09:46:38.413Z,22.05
2019-06-01T09:49:08.240Z,21.90
2019-06-01T09:51:38.061Z,22.02
2019-06-01T09:54:07.884Z,22.16
2019-06-01T09:56:39.735Z,22.37
2019-06-01T09:59:09.189Z,22.47
2019-06-01T10:01:39.039Z,22.39
2019-06-01T10:04:09.291Z,22.33
2019-06-01T10:06:39.107Z,22.41
2019-06-01T10:09:09.476Z,22.66
2019-06-01T10:11:39.344Z,22.73
2019-06-01T10:14:09.161Z,22.75
2019-06-01T10:16:39.151Z,22.71
2019-06-01T10:19:08.991Z,22.59
2019-06-01T10:21:39.113Z,22.18
2019-06-01T10:24:08.933Z,22.68
2019-06-01T10:26:39.550Z,22.44
2019-06-01T10:29:10.140Z,22.44
2019-06-01T10:31:41.530Z,22.63
2019-06-01T10:34:11.478Z,22.73
2019-06-01T10:36:42.188Z,22.72
2019-06-01T10:39:12.070Z,22.54
2019-06-01T10:41:41.890Z,22.81
2019-06-01T10:44:11.750Z,22.94
2019-06-01T10:46:42.198Z,23.08
2019-06-01T10:49:12.019Z,23.08
2019-06-01T10:51:42.364Z,23.20
2019-06-01T10:54:12.220Z,22.89
2019-06-01T10:56:42.578Z,23.04
2019-06-01T10:59:12.419Z,23.16
2019-06-01T11:01:42.750Z,23.34
2019-06-01T11:04:12.858Z,23.28
2019-06-01T11:06:48.166Z,23.23
2019-06-01T11:09:14.169Z,23.25
2019-06-01T11:11:43.960Z,23.27
2019-06-01T11:14:13.791Z,23.27
2019-06-01T11:16:44.220Z,23.65
2019-06-01T11:19:14.155Z,23.65
2019-06-01T11:21:43.989Z,23.58
2019-06-01T11:26:43.800Z,23.55
2019-06-01T11:29:13.725Z,23.60
2019-06-01T11:31:44.247Z,23.61
2019-06-01T11:34:14.054Z,23.48
2019-06-01T11:37:03.508Z,23.59
2019-06-01T11:39:15.395Z,23.43
2019-06-01T11:41:45.209Z,23.54
2019-06-01T11:44:15.021Z,23.63
2019-06-01T11:46:45.191Z,23.55
2019-06-01T11:49:15.010Z,23.59
2019-06-01T11:51:45.259Z,23.75
2019-06-01T11:54:15.160Z,23.71
2019-06-01T11:56:45.513Z,23.75
2019-06-01T11:59:15.336Z,23.86
2019-06-01T12:01:46.013Z,23.82
2019-06-01T12:04:15.914Z,23.83
2019-06-01T12:06:46.332Z,23.86
2019-06-01T12:09:16.412Z,23.97
2019-06-01T12:11:46.548Z,24.11
2019-06-01T12:14:16.394Z,24.38
2019-06-01T12:16:46.741Z,24.25
2019-06-01T12:19:16.758Z,24.18
2019-06-01T12:21:47.454Z,24.15
2019-06-01T12:24:17.411Z,24.32
2019-06-01T12:26:47.633Z,24.23
2019-06-01T12:29:17.495Z,24.20
2019-06-01T12:31:48.199Z,24.26
2019-06-01T12:34:18.042Z,24.25
2019-06-01T12:36:48.502Z,24.34
2019-06-01T12:39:18.341Z,24.38
2019-06-01T12:41:48.238Z,24.30
2019-06-01T12:44:18.060Z,24.24
2019-06-01T12:46:48.990Z,24.16
2019-06-01T12:49:18.895Z,24.24
2019-06-01T12:51:49.066Z,24.39
2019-06-01T12:54:18.911Z,24.71
2019-06-01T12:56:49.844Z,24.75
2019-06-01T12:59:19.725Z,24.63
2019-06-01T13:01:49.549Z,24.47
2019-06-01T13:04:19.349Z,24.39
2019-06-01T13:06:52.016Z,24.58
2019-06-01T13:09:20.674Z,24.72
2019-06-01T13:11:51.440Z,24.55
2019-06-01T13:14:21.293Z,24.63
2019-06-01T13:17:06.378Z,24.74
2019-06-01T13:19:22.634Z,25.18
2019-06-01T13:21:52.459Z,25.05
2019-06-01T13:24:22.254Z,25.03
2019-06-01T13:26:52.078Z,24.96
2019-06-01T13:29:21.877Z,24.86
2019-06-01T13:31:52.592Z,25.04
2019-06-01T13:34:22.495Z,25.09
2019-06-01T13:36:53.012Z,25.05
2019-06-01T13:39:22.904Z,25.04
2019-06-01T13:41:53.449Z,25.39
2019-06-01T13:44:23.294Z,25.48
2019-06-01T13:46:53.728Z,25.43
2019-06-01T13:49:23.487Z,25.20
2019-06-01T13:51:54.565Z,25.41
2019-06-01T13:54:24.551Z,25.28
2019-06-01T13:56:55.176Z,25.41
2019-06-01T13:59:25.212Z,25.43
2019-06-01T14:01:55.401Z,25.51
2019-06-01T14:04:25.280Z,25.60
2019-06-01T14:06:55.504Z,25.50
2019-06-01T14:09:25.301Z,25.45
2019-06-01T14:11:55.542Z,25.45
2019-06-01T14:14:25.409Z,25.36
2019-06-01T14:16:55.740Z,25.58
2019-06-01T14:19:25.619Z,25.86
2019-06-01T14:21:55.982Z,25.69
2019-06-01T14:24:25.789Z,25.87
2019-06-01T14:26:56.321Z,25.90
2019-06-01T14:29:26.298Z,25.68
2019-06-01T14:31:57.308Z,25.66
2019-06-01T14:34:27.183Z,25.65
2019-06-01T14:36:56.997Z,25.84
2019-06-01T14:39:26.812Z,25.82
2019-06-01T14:41:57.670Z,25.65
2019-06-01T14:44:27.516Z,25.79
2019-06-01T14:47:04.592Z,25.83
2019-06-01T14:49:29.127Z,25.88
2019-06-01T14:51:58.956Z,26.02
2019-06-01T14:54:28.789Z,26.04
2019-06-01T14:56:58.561Z,26.01
2019-06-01T14:59:28.358Z,25.97
2019-06-01T15:01:58.414Z,26.03
2019-06-01T15:04:28.314Z,26.11
2019-06-01T15:06:58.605Z,26.02
2019-06-01T15:09:28.405Z,25.98
2019-06-01T15:11:58.813Z,25.92
2019-06-01T15:14:28.966Z,25.86
2019-06-01T15:16:58.803Z,25.99
2019-06-01T15:19:28.616Z,26.03
2019-06-01T15:21:58.485Z,26.11
2019-06-01T15:24:28.298Z,26.14
2019-06-01T15:26:58.984Z,26.10
2019-06-01T15:29:28.845Z,26.04
2019-06-01T15:32:00.037Z,25.90
2019-06-01T15:34:29.959Z,25.88
2019-06-01T15:36:59.823Z,25.97
2019-06-01T15:39:29.746Z,25.91
2019-06-01T15:41:59.550Z,26.13
2019-06-01T15:44:29.463Z,26.14
2019-06-01T15:46:59.777Z,26.14
2019-06-01T15:49:29.810Z,26.14
2019-06-01T15:51:59.920Z,26.27
2019-06-01T15:54:29.801Z,26.24
2019-06-01T15:57:00.707Z,26.29
2019-06-01T15:59:30.602Z,26.31
2019-06-01T16:02:01.384Z,26.44
2019-06-01T16:04:31.284Z,26.48
2019-06-01T16:07:01.496Z,26.33
2019-06-01T16:09:42.038Z,26.41
2019-06-01T16:12:03.784Z,26.51
2019-06-01T16:14:33.748Z,26.66
2019-06-01T16:17:04.780Z,26.83
2019-06-01T16:19:34.856Z,26.87
2019-06-01T16:22:05.028Z,26.79
2019-06-01T16:24:35.015Z,26.87
2019-06-01T16:27:05.273Z,26.90
2019-06-01T16:29:35.082Z,26.95
2019-06-01T16:32:05.210Z,26.95
2019-06-01T16:34:35.059Z,26.76
2019-06-01T16:37:05.438Z,26.74
2019-06-01T16:39:35.328Z,26.91
2019-06-01T16:42:06.258Z,26.85
2019-06-01T16:44:36.287Z,26.87
2019-06-01T16:47:06.280Z,27.16
2019-06-01T16:49:36.106Z,27.26
2019-06-01T16:52:07.154Z,27.26
2019-06-01T16:54:37.186Z,27.26
2019-06-01T16:57:07.451Z,27.29
2019-06-01T16:59:37.449Z,27.43
2019-06-01T17:02:07.989Z,26.68
2019-06-01T17:04:37.876Z,26.06
2019-06-01T17:07:08.807Z,25.93
2019-06-01T17:09:39.050Z,26.15
2019-06-01T17:12:09.034Z,26.63
2019-06-01T17:14:39.301Z,26.68
2019-06-01T17:17:09.512Z,26.78
2019-06-01T17:19:39.445Z,26.87
2019-06-01T17:22:09.352Z,27.02
2019-06-01T17:24:39.280Z,26.99
2019-06-01T17:27:09.074Z,27.04
2019-06-01T17:29:38.995Z,27.09
2019-06-01T17:32:23.015Z,26.56
2019-06-01T17:34:40.965Z,26.57
2019-06-01T17:37:10.768Z,26.76
2019-06-01T17:39:40.858Z,26.81
2019-06-01T17:42:10.755Z,26.74
2019-06-01T17:44:40.565Z,26.67
2019-06-01T17:47:10.366Z,26.55
2019-06-01T17:49:40.164Z,26.65
2019-06-01T17:52:09.984Z,26.76
2019-06-01T17:54:39.814Z,26.68
2019-06-01T17:57:09.626Z,26.59
2019-06-01T17:59:39.503Z,26.41
2019-06-01T18:02:09.896Z,26.26
2019-06-01T18:04:39.871Z,26.18
2019-06-01T18:07:10.069Z,26.10
2019-06-01T18:09:39.886Z,25.88
2019-06-01T18:12:10.207Z,25.54
2019-06-01T18:14:40.054Z,25.22
2019-06-01T18:17:10.316Z,24.93
2019-06-01T18:19:40.339Z,24.73
2019-06-01T18:22:10.908Z,24.60
2019-06-01T18:24:40.774Z,24.47
2019-06-01T18:27:10.722Z,24.30
2019-06-01T18:29:48.147Z,24.19
2019-06-01T18:32:11.991Z,24.17
2019-06-01T18:34:41.791Z,24.10
2019-06-01T18:37:11.653Z,24.00
2019-06-01T18:39:41.535Z,23.88
2019-06-01T18:42:12.442Z,23.78
2019-06-01T18:44:42.250Z,23.68
2019-06-01T18:47:12.096Z,23.53
2019-06-01T18:49:41.913Z,23.49
2019-06-01T18:52:12.760Z,23.39
2019-06-01T18:54:42.619Z,23.40
2019-06-01T18:57:19.240Z,23.34
2019-06-01T18:59:44.206Z,23.33
2019-06-01T19:02:14.589Z,23.19
2019-06-01T19:04:44.386Z,23.16
2019-06-01T19:07:15.360Z,23.11
2019-06-01T19:09:45.307Z,23.09
2019-06-01T19:12:15.542Z,23.04
2019-06-01T19:14:45.414Z,22.97
2019-06-01T19:17:16.459Z,22.94
2019-06-01T19:19:46.329Z,22.93
2019-06-01T19:22:16.756Z,22.86
2019-06-01T19:24:46.519Z,22.81
2019-06-01T19:27:17.095Z,22.71
2019-06-01T19:29:46.960Z,22.59
2019-06-01T19:32:20.833Z,22.44
2019-06-01T19:34:48.835Z,22.34
2019-06-01T19:37:19.009Z,22.19
2019-06-01T19:39:49.465Z,21.78
2019-06-01T19:42:19.284Z,21.37
2019-06-01T19:44:49.126Z,21.04
2019-06-01T19:47:19.260Z,21.18
2019-06-01T19:49:49.077Z,21.42
2019-06-01T19:52:19.079Z,21.62
2019-06-01T19:54:48.887Z,21.66
2019-06-01T19:57:21.825Z,21.63
2019-06-01T19:59:50.237Z,21.56
2019-06-01T20:02:29.613Z,21.62
2019-06-01T20:04:51.578Z,21.53
2019-06-01T20:07:21.545Z,21.52
2019-06-01T20:09:51.363Z,21.48
2019-06-01T20:12:22.469Z,21.44
2019-06-01T20:14:52.371Z,21.42
2019-06-01T20:17:25.938Z,21.35
2019-06-01T20:19:53.709Z,21.28
2019-06-01T20:22:23.507Z,21.23
2019-06-01T20:24:53.328Z,21.17
2019-06-01T20:27:23.136Z,21.14
2019-06-01T20:29:52.941Z,20.86
2019-06-01T20:32:22.746Z,20.50
2019-06-01T20:34:52.573Z,20.44
2019-06-01T20:37:22.381Z,20.66
2019-06-01T20:39:52.217Z,20.74
2019-06-01T20:42:30.281Z,20.77
2019-06-01T20:44:53.540Z,20.71
2019-06-01T20:47:23.370Z,20.67
2019-06-01T20:49:53.201Z,20.55
2019-06-01T20:52:23.365Z,20.52
2019-06-01T20:54:53.152Z,20.23
2019-06-01T20:57:23.996Z,20.25
2019-06-01T20:59:53.844Z,20.31
2019-06-01T21:02:24.122Z,20.42
2019-06-01T21:04:53.970Z,20.46
2019-06-01T21:07:24.173Z,20.28
2019-06-01T21:09:54.089Z,20.14
2019-06-01T21:12:42.656Z,20.25
2019-06-01T21:14:55.675Z,20.21
2019-06-01T21:17:25.496Z,20.19
2019-06-01T21:19:55.305Z,20.17
2019-06-01T21:22:25.119Z,20.19
2019-06-01T21:24:54.962Z,19.88
2019-06-01T21:27:24.949Z,19.61
2019-06-01T21:29:54.765Z,19.80
2019-06-01T21:32:25.664Z,19.95
2019-06-01T21:34:55.487Z,20.01
2019-06-01T21:37:26.423Z,19.81
2019-06-01T21:39:56.284Z,19.75
2019-06-01T21:42:26.178Z,19.47
2019-06-01T21:44:56.006Z,19.43
2019-06-01T21:47:25.955Z,19.59
2019-06-01T21:49:55.690Z,19.34
2019-06-01T21:52:26.384Z,19.19
2019-06-01T21:54:56.302Z,19.14
2019-06-01T21:57:26.633Z,19.30
2019-06-01T21:59:56.531Z,19.46
2019-06-01T22:02:27.195Z,19.26
2019-06-01T22:04:57.046Z,19.18
2019-06-01T22:07:27.462Z,19.17
2019-06-01T22:09:57.316Z,19.10
2019-06-01T22:12:27.827Z,19.04
2019-06-01T22:14:57.615Z,18.98
2019-06-01T22:17:27.936Z,19.11
2019-06-01T22:19:57.833Z,19.14
2019-06-01T22:22:28.162Z,18.98
2019-06-01T22:24:58.093Z,19.04
2019-06-01T22:27:28.411Z,19.13
2019-06-01T22:29:58.506Z,19.24
2019-06-01T22:32:31.295Z,19.20
2019-06-01T22:34:59.841Z,19.06
2019-06-01T22:37:29.629Z,18.72
2019-06-01T22:39:59.440Z,18.80
2019-06-01T22:42:29.391Z,18.97
2019-06-01T22:44:59.202Z,19.00
2019-06-01T22:47:29.116Z,18.84
2019-06-01T22:49:58.926Z,18.83
2019-06-01T22:52:29.174Z,18.69
2019-06-01T22:54:59.113Z,18.62
2019-06-01T22:57:28.943Z,18.50
2019-06-01T22:59:58.838Z,18.40
2019-06-01T23:02:29.818Z,18.34
2019-06-01T23:04:59.755Z,18.59
2019-06-01T23:07:29.695Z,18.69
2019-06-01T23:09:59.510Z,18.51
2019-06-01T23:12:29.622Z,18.61
2019-06-01T23:14:59.405Z,18.72
2019-06-01T23:17:29.905Z,18.87
2019-06-01T23:19:59.888Z,18.74
2019-06-01T23:22:30.110Z,18.75
2019-06-01T23:25:00.089Z,18.65
2019-06-01T23:27:31.089Z,18.70
2019-06-01T23:30:01.330Z,18.72
2019-06-01T23:32:31.147Z,18.66
2019-06-01T23:35:00.963Z,18.59
2019-06-01T23:37:30.909Z,18.59
2019-06-01T23:40:00.768Z,18.64
2019-06-01T23:42:30.971Z,18.65
2019-06-01T23:45:00.886Z,18.53
2019-06-01T23:47:31.383Z,18.54
2019-06-01T23:50:01.556Z,18.50
2019-06-01T23:52:31.706Z,18.73
2019-06-01T23:55:01.657Z,19.06
2019-06-01T23:57:32.097Z,19.29
